sensor_id;sensor_type;location;lat;lon;timestamp;P1;durP1;ratioP1;P2;durP2;ratioP2
17818;SDS011;9034;50.284;19.310;2023-03-14T00:00:07;57.63;;;30.45;;
17818;SDS011;9034;50.284;19.310;2023-03-14T00:01:12;72.38;;;35.38;;
17818;SDS011;9034;50.284;19.310;2023-03-14T00:02:16;51.03;;;26.48;;
17818;SDS011;9034;50.284;19.310;2023-03-14T00:03:18;48.20;;;25.02;;
17818;SDS011;9034;50.284;19.310;2023-03-14T00:04:22;52.53;;;27.40;;
17818;SDS011;9034;50.284;19.310;2023-03-14T00:05:25;44.55;;;22.70;;
17818;SDS011;9034;50.284;19.310;2023-03-14T00:06:27;52.15;;;26.90;;
17818;SDS011;9034;50.284;19.310;2023-03-14T00:07:30;53.38;;;26.25;;
17818;SDS011;9034;50.284;19.310;2023-03-14T00:08:35;47.35;;;26.05;;
17818;SDS011;9034;50.284;19.310;2023-03-14T00:09:38;49.45;;;26.15;;
17818;SDS011;9034;50.284;19.310;2023-03-14T00:10:40;39.90;;;20.67;;
17818;SDS011;9034;50.284;19.310;2023-03-14T00:11:43;45.72;;;25.25;;
17818;SDS011;9034;50.284;19.310;2023-03-14T00:12:45;48.17;;;26.15;;
17818;SDS011;9034;50.284;19.310;2023-03-14T00:13:48;48.25;;;25.95;;
17818;SDS011;9034;50.284;19.310;2023-03-14T00:14:51;48.83;;;23.83;;
17818;SDS011;9034;50.284;19.310;2023-03-14T00:15:54;47.88;;;25.67;;
17818;SDS011;9034;50.284;19.310;2023-03-14T00:16:56;47.22;;;25.95;;
17818;SDS011;9034;50.284;19.310;2023-03-14T00:17:59;48.45;;;25.50;;
17818;SDS011;9034;50.284;19.310;2023-03-14T00:19:01;41.95;;;21.67;;
17818;SDS011;9034;50.284;19.310;2023-03-14T00:20:06;47.67;;;24.30;;
17818;SDS011;9034;50.284;19.310;2023-03-14T00:21:10;50.00;;;24.95;;
17818;SDS011;9034;50.284;19.310;2023-03-14T00:22:13;49.38;;;25.05;;
17818;SDS011;9034;50.284;19.310;2023-03-14T00:23:15;49.13;;;22.73;;
17818;SDS011;9034;50.284;19.310;2023-03-14T00:24:17;46.53;;;24.67;;
17818;SDS011;9034;50.284;19.310;2023-03-14T00:25:19;43.38;;;22.00;;
17818;SDS011;9034;50.284;19.310;2023-03-14T00:26:22;41.47;;;22.60;;
17818;SDS011;9034;50.284;19.310;2023-03-14T00:27:24;57.78;;;30.13;;
17818;SDS011;9034;50.284;19.310;2023-03-14T00:28:27;47.22;;;23.92;;
17818;SDS011;9034;50.284;19.310;2023-03-14T00:29:29;44.33;;;23.70;;
17818;SDS011;9034;50.284;19.310;2023-03-14T00:30:32;39.83;;;18.38;;
17818;SDS011;9034;50.284;19.310;2023-03-14T00:31:33;42.97;;;23.35;;
17818;SDS011;9034;50.284;19.310;2023-03-14T00:32:37;42.13;;;22.95;;
17818;SDS011;9034;50.284;19.310;2023-03-14T00:33:39;59.38;;;30.00;;
17818;SDS011;9034;50.284;19.310;2023-03-14T00:34:42;43.55;;;22.38;;
17818;SDS011;9034;50.284;19.310;2023-03-14T00:35:52;45.25;;;23.67;;
17818;SDS011;9034;50.284;19.310;2023-03-14T00:36:56;40.70;;;20.67;;
17818;SDS011;9034;50.284;19.310;2023-03-14T00:37:58;44.95;;;23.67;;
17818;SDS011;9034;50.284;19.310;2023-03-14T00:39:01;54.40;;;28.90;;
17818;SDS011;9034;50.284;19.310;2023-03-14T00:40:06;60.92;;;31.20;;
17818;SDS011;9034;50.284;19.310;2023-03-14T00:41:10;37.83;;;21.38;;
17818;SDS011;9034;50.284;19.310;2023-03-14T00:42:13;47.00;;;27.17;;
17818;SDS011;9034;50.284;19.310;2023-03-14T00:43:16;64.30;;;35.78;;
17818;SDS011;9034;50.284;19.310;2023-03-14T00:44:18;54.20;;;29.52;;
17818;SDS011;9034;50.284;19.310;2023-03-14T00:45:21;46.83;;;26.02;;
17818;SDS011;9034;50.284;19.310;2023-03-14T00:46:23;45.40;;;27.58;;
17818;SDS011;9034;50.284;19.310;2023-03-14T00:47:25;51.10;;;30.58;;
17818;SDS011;9034;50.284;19.310;2023-03-14T00:48:27;45.03;;;27.77;;
17818;SDS011;9034;50.284;19.310;2023-03-14T00:49:30;67.45;;;36.97;;
17818;SDS011;9034;50.284;19.310;2023-03-14T00:50:32;54.05;;;28.67;;
17818;SDS011;9034;50.284;19.310;2023-03-14T00:51:36;52.63;;;28.25;;
17818;SDS011;9034;50.284;19.310;2023-03-14T00:52:38;53.58;;;31.15;;
17818;SDS011;9034;50.284;19.310;2023-03-14T00:53:41;53.53;;;30.20;;
17818;SDS011;9034;50.284;19.310;2023-03-14T00:54:43;48.97;;;28.50;;
17818;SDS011;9034;50.284;19.310;2023-03-14T00:55:46;46.72;;;26.25;;
17818;SDS011;9034;50.284;19.310;2023-03-14T00:56:48;51.90;;;29.80;;
17818;SDS011;9034;50.284;19.310;2023-03-14T00:57:51;58.03;;;31.50;;
17818;SDS011;9034;50.284;19.310;2023-03-14T00:58:54;55.13;;;30.85;;
17818;SDS011;9034;50.284;19.310;2023-03-14T00:59:57;52.53;;;28.30;;
17818;SDS011;9034;50.284;19.310;2023-03-14T01:00:59;49.03;;;28.52;;
17818;SDS011;9034;50.284;19.310;2023-03-14T01:02:04;52.03;;;30.23;;
17818;SDS011;9034;50.284;19.310;2023-03-14T01:03:06;50.53;;;29.42;;
17818;SDS011;9034;50.284;19.310;2023-03-14T01:04:09;48.00;;;29.50;;
17818;SDS011;9034;50.284;19.310;2023-03-14T01:05:12;41.97;;;26.35;;
17818;SDS011;9034;50.284;19.310;2023-03-14T01:06:17;34.28;;;18.88;;
17818;SDS011;9034;50.284;19.310;2023-03-14T01:07:20;27.98;;;16.83;;
17818;SDS011;9034;50.284;19.310;2023-03-14T01:08:23;32.13;;;17.95;;
17818;SDS011;9034;50.284;19.310;2023-03-14T01:09:25;25.45;;;15.95;;
17818;SDS011;9034;50.284;19.310;2023-03-14T01:10:28;34.72;;;20.35;;
17818;SDS011;9034;50.284;19.310;2023-03-14T01:11:32;30.30;;;18.70;;
17818;SDS011;9034;50.284;19.310;2023-03-14T01:12:36;30.50;;;17.00;;
17818;SDS011;9034;50.284;19.310;2023-03-14T01:13:38;29.40;;;17.83;;
17818;SDS011;9034;50.284;19.310;2023-03-14T01:14:41;27.25;;;16.02;;
17818;SDS011;9034;50.284;19.310;2023-03-14T01:15:43;30.50;;;16.63;;
17818;SDS011;9034;50.284;19.310;2023-03-14T01:16:45;30.70;;;16.17;;
17818;SDS011;9034;50.284;19.310;2023-03-14T01:17:48;28.52;;;15.57;;
17818;SDS011;9034;50.284;19.310;2023-03-14T01:18:50;30.25;;;18.70;;
17818;SDS011;9034;50.284;19.310;2023-03-14T01:19:53;32.67;;;19.60;;
17818;SDS011;9034;50.284;19.310;2023-03-14T01:20:56;34.95;;;20.85;;
17818;SDS011;9034;50.284;19.310;2023-03-14T01:21:58;37.30;;;22.33;;
17818;SDS011;9034;50.284;19.310;2023-03-14T01:23:02;33.40;;;20.95;;
17818;SDS011;9034;50.284;19.310;2023-03-14T01:24:05;56.45;;;32.10;;
17818;SDS011;9034;50.284;19.310;2023-03-14T01:25:10;35.20;;;19.80;;
17818;SDS011;9034;50.284;19.310;2023-03-14T01:26:13;35.75;;;19.58;;
17818;SDS011;9034;50.284;19.310;2023-03-14T01:27:17;52.10;;;31.50;;
17818;SDS011;9034;50.284;19.310;2023-03-14T01:28:19;58.10;;;34.83;;
17818;SDS011;9034;50.284;19.310;2023-03-14T01:29:22;57.85;;;35.78;;
17818;SDS011;9034;50.284;19.310;2023-03-14T01:30:24;52.55;;;27.58;;
17818;SDS011;9034;50.284;19.310;2023-03-14T01:31:27;52.83;;;28.33;;
17818;SDS011;9034;50.284;19.310;2023-03-14T01:32:30;47.08;;;27.38;;
17818;SDS011;9034;50.284;19.310;2023-03-14T01:33:33;59.85;;;33.70;;
17818;SDS011;9034;50.284;19.310;2023-03-14T01:34:35;51.22;;;26.33;;
17818;SDS011;9034;50.284;19.310;2023-03-14T01:35:38;55.53;;;29.15;;
17818;SDS011;9034;50.284;19.310;2023-03-14T01:36:40;52.42;;;31.80;;
17818;SDS011;9034;50.284;19.310;2023-03-14T01:37:43;54.30;;;32.75;;
17818;SDS011;9034;50.284;19.310;2023-03-14T01:38:54;46.88;;;30.15;;
17818;SDS011;9034;50.284;19.310;2023-03-14T01:39:57;47.42;;;30.92;;
17818;SDS011;9034;50.284;19.310;2023-03-14T01:40:59;50.78;;;25.83;;
17818;SDS011;9034;50.284;19.310;2023-03-14T01:42:02;52.63;;;27.65;;
17818;SDS011;9034;50.284;19.310;2023-03-14T01:43:06;46.40;;;27.02;;
17818;SDS011;9034;50.284;19.310;2023-03-14T01:44:16;48.90;;;27.42;;
17818;SDS011;9034;50.284;19.310;2023-03-14T01:47:15;45.25;;;22.52;;
17818;SDS011;9034;50.284;19.310;2023-03-14T01:48:18;40.20;;;20.25;;
17818;SDS011;9034;50.284;19.310;2023-03-14T01:49:22;26.80;;;15.05;;
17818;SDS011;9034;50.284;19.310;2023-03-14T01:50:33;20.38;;;11.57;;
17818;SDS011;9034;50.284;19.310;2023-03-14T01:51:36;20.90;;;12.75;;
17818;SDS011;9034;50.284;19.310;2023-03-14T01:52:44;24.90;;;14.68;;
17818;SDS011;9034;50.284;19.310;2023-03-14T01:53:50;22.65;;;14.07;;
17818;SDS011;9034;50.284;19.310;2023-03-14T01:54:55;19.08;;;10.93;;
17818;SDS011;9034;50.284;19.310;2023-03-14T01:56:01;21.45;;;11.88;;
17818;SDS011;9034;50.284;19.310;2023-03-14T01:57:06;22.98;;;14.50;;
17818;SDS011;9034;50.284;19.310;2023-03-14T01:58:11;36.03;;;21.45;;
17818;SDS011;9034;50.284;19.310;2023-03-14T01:59:13;27.45;;;17.13;;
17818;SDS011;9034;50.284;19.310;2023-03-14T02:00:17;28.63;;;17.77;;
17818;SDS011;9034;50.284;19.310;2023-03-14T02:01:22;28.13;;;18.25;;
17818;SDS011;9034;50.284;19.310;2023-03-14T02:02:27;30.27;;;16.05;;
17818;SDS011;9034;50.284;19.310;2023-03-14T02:03:30;30.60;;;16.90;;
17818;SDS011;9034;50.284;19.310;2023-03-14T02:04:38;24.38;;;15.10;;
17818;SDS011;9034;50.284;19.310;2023-03-14T02:05:41;26.88;;;15.23;;
17818;SDS011;9034;50.284;19.310;2023-03-14T02:06:52;27.98;;;14.93;;
17818;SDS011;9034;50.284;19.310;2023-03-14T02:08:02;30.45;;;15.35;;
17818;SDS011;9034;50.284;19.310;2023-03-14T02:09:14;27.77;;;17.60;;
17818;SDS011;9034;50.284;19.310;2023-03-14T02:10:19;27.38;;;18.35;;
17818;SDS011;9034;50.284;19.310;2023-03-14T02:11:23;29.75;;;18.15;;
17818;SDS011;9034;50.284;19.310;2023-03-14T02:12:36;29.10;;;18.33;;
17818;SDS011;9034;50.284;19.310;2023-03-14T02:13:43;27.73;;;15.85;;
17818;SDS011;9034;50.284;19.310;2023-03-14T02:15:00;25.63;;;13.27;;
17818;SDS011;9034;50.284;19.310;2023-03-14T02:16:15;25.08;;;12.73;;
17818;SDS011;9034;50.284;19.310;2023-03-14T02:17:26;19.58;;;10.10;;
17818;SDS011;9034;50.284;19.310;2023-03-14T02:19:03;14.30;;;9.10;;
17818;SDS011;9034;50.284;19.310;2023-03-14T02:20:21;18.95;;;10.32;;
17818;SDS011;9034;50.284;19.310;2023-03-14T02:21:34;17.45;;;10.38;;
17818;SDS011;9034;50.284;19.310;2023-03-14T02:22:42;17.08;;;9.98;;
17818;SDS011;9034;50.284;19.310;2023-03-14T02:23:48;18.40;;;10.55;;
17818;SDS011;9034;50.284;19.310;2023-03-14T02:24:57;16.42;;;10.05;;
17818;SDS011;9034;50.284;19.310;2023-03-14T02:26:08;19.33;;;10.48;;
17818;SDS011;9034;50.284;19.310;2023-03-14T02:27:15;22.02;;;11.13;;
17818;SDS011;9034;50.284;19.310;2023-03-14T02:28:19;25.20;;;11.88;;
17818;SDS011;9034;50.284;19.310;2023-03-14T02:29:27;20.80;;;10.77;;
17818;SDS011;9034;50.284;19.310;2023-03-14T02:30:36;21.08;;;10.80;;
17818;SDS011;9034;50.284;19.310;2023-03-14T02:31:39;22.52;;;13.45;;
17818;SDS011;9034;50.284;19.310;2023-03-14T02:32:43;25.45;;;14.18;;
17818;SDS011;9034;50.284;19.310;2023-03-14T02:33:48;24.40;;;14.05;;
17818;SDS011;9034;50.284;19.310;2023-03-14T02:34:51;25.23;;;13.65;;
17818;SDS011;9034;50.284;19.310;2023-03-14T02:35:57;24.80;;;12.50;;
17818;SDS011;9034;50.284;19.310;2023-03-14T02:37:01;25.20;;;12.00;;
17818;SDS011;9034;50.284;19.310;2023-03-14T02:38:06;24.55;;;11.38;;
17818;SDS011;9034;50.284;19.310;2023-03-14T02:39:16;21.13;;;11.90;;
17818;SDS011;9034;50.284;19.310;2023-03-14T02:40:22;22.70;;;13.05;;
17818;SDS011;9034;50.284;19.310;2023-03-14T02:41:26;22.10;;;14.15;;
17818;SDS011;9034;50.284;19.310;2023-03-14T02:42:37;24.65;;;13.38;;
17818;SDS011;9034;50.284;19.310;2023-03-14T02:43:39;24.38;;;13.85;;
17818;SDS011;9034;50.284;19.310;2023-03-14T02:44:52;21.60;;;11.00;;
17818;SDS011;9034;50.284;19.310;2023-03-14T02:45:55;22.88;;;10.57;;
17818;SDS011;9034;50.284;19.310;2023-03-14T02:46:59;18.80;;;10.98;;
17818;SDS011;9034;50.284;19.310;2023-03-14T02:48:02;20.98;;;12.32;;
17818;SDS011;9034;50.284;19.310;2023-03-14T02:49:10;21.20;;;13.27;;
17818;SDS011;9034;50.284;19.310;2023-03-14T02:50:15;22.08;;;13.18;;
17818;SDS011;9034;50.284;19.310;2023-03-14T02:51:19;24.10;;;12.82;;
17818;SDS011;9034;50.284;19.310;2023-03-14T02:52:23;20.10;;;12.35;;
17818;SDS011;9034;50.284;19.310;2023-03-14T02:53:25;18.88;;;10.85;;
17818;SDS011;9034;50.284;19.310;2023-03-14T02:54:32;20.67;;;11.02;;
17818;SDS011;9034;50.284;19.310;2023-03-14T02:55:35;17.80;;;10.02;;
17818;SDS011;9034;50.284;19.310;2023-03-14T02:56:44;19.48;;;12.68;;
17818;SDS011;9034;50.284;19.310;2023-03-14T02:57:48;20.15;;;12.82;;
17818;SDS011;9034;50.284;19.310;2023-03-14T02:58:51;20.13;;;12.70;;
17818;SDS011;9034;50.284;19.310;2023-03-14T03:00:03;25.05;;;12.95;;
17818;SDS011;9034;50.284;19.310;2023-03-14T03:01:09;23.88;;;11.73;;
17818;SDS011;9034;50.284;19.310;2023-03-14T03:02:12;23.83;;;13.35;;
17818;SDS011;9034;50.284;19.310;2023-03-14T03:03:14;21.77;;;11.73;;
17818;SDS011;9034;50.284;19.310;2023-03-14T03:04:17;22.17;;;13.02;;
17818;SDS011;9034;50.284;19.310;2023-03-14T03:05:20;19.02;;;12.50;;
17818;SDS011;9034;50.284;19.310;2023-03-14T03:06:23;21.50;;;12.68;;
17818;SDS011;9034;50.284;19.310;2023-03-14T03:07:25;19.90;;;11.30;;
17818;SDS011;9034;50.284;19.310;2023-03-14T03:08:30;24.17;;;10.77;;
17818;SDS011;9034;50.284;19.310;2023-03-14T03:09:34;21.27;;;13.45;;
17818;SDS011;9034;50.284;19.310;2023-03-14T03:10:36;24.65;;;14.10;;
17818;SDS011;9034;50.284;19.310;2023-03-14T03:11:41;23.73;;;13.18;;
17818;SDS011;9034;50.284;19.310;2023-03-14T03:12:50;22.40;;;14.00;;
17818;SDS011;9034;50.284;19.310;2023-03-14T03:13:56;24.33;;;11.93;;
17818;SDS011;9034;50.284;19.310;2023-03-14T03:15:01;22.20;;;12.23;;
17818;SDS011;9034;50.284;19.310;2023-03-14T03:16:04;24.10;;;11.57;;
17818;SDS011;9034;50.284;19.310;2023-03-14T03:17:08;24.88;;;14.48;;
17818;SDS011;9034;50.284;19.310;2023-03-14T03:18:12;22.77;;;14.63;;
17818;SDS011;9034;50.284;19.310;2023-03-14T03:19:16;27.25;;;16.55;;
17818;SDS011;9034;50.284;19.310;2023-03-14T03:20:19;22.95;;;13.38;;
17818;SDS011;9034;50.284;19.310;2023-03-14T03:21:21;26.90;;;13.00;;
17818;SDS011;9034;50.284;19.310;2023-03-14T03:22:24;24.00;;;13.52;;
17818;SDS011;9034;50.284;19.310;2023-03-14T03:23:28;28.77;;;16.83;;
17818;SDS011;9034;50.284;19.310;2023-03-14T03:24:31;31.33;;;19.85;;
17818;SDS011;9034;50.284;19.310;2023-03-14T03:25:36;33.13;;;19.73;;
17818;SDS011;9034;50.284;19.310;2023-03-14T03:26:38;35.08;;;17.38;;
17818;SDS011;9034;50.284;19.310;2023-03-14T03:27:44;24.15;;;12.60;;
17818;SDS011;9034;50.284;19.310;2023-03-14T03:28:47;21.40;;;14.45;;
17818;SDS011;9034;50.284;19.310;2023-03-14T03:29:53;32.42;;;20.08;;
17818;SDS011;9034;50.284;19.310;2023-03-14T03:30:54;33.92;;;18.00;;
17818;SDS011;9034;50.284;19.310;2023-03-14T03:31:57;36.47;;;18.42;;
17818;SDS011;9034;50.284;19.310;2023-03-14T03:32:59;34.80;;;17.75;;
17818;SDS011;9034;50.284;19.310;2023-03-14T03:34:02;38.70;;;19.67;;
17818;SDS011;9034;50.284;19.310;2023-03-14T03:35:05;39.67;;;23.05;;
17818;SDS011;9034;50.284;19.310;2023-03-14T03:36:11;37.60;;;22.30;;
17818;SDS011;9034;50.284;19.310;2023-03-14T03:37:14;39.20;;;21.38;;
17818;SDS011;9034;50.284;19.310;2023-03-14T03:38:18;35.63;;;17.67;;
17818;SDS011;9034;50.284;19.310;2023-03-14T03:39:23;36.05;;;18.65;;
17818;SDS011;9034;50.284;19.310;2023-03-14T03:40:26;39.38;;;21.23;;
17818;SDS011;9034;50.284;19.310;2023-03-14T03:41:28;35.88;;;18.13;;
17818;SDS011;9034;50.284;19.310;2023-03-14T03:42:32;33.33;;;18.27;;
17818;SDS011;9034;50.284;19.310;2023-03-14T03:43:35;27.05;;;14.60;;
17818;SDS011;9034;50.284;19.310;2023-03-14T03:44:41;24.95;;;13.45;;
17818;SDS011;9034;50.284;19.310;2023-03-14T03:45:44;22.02;;;11.95;;
17818;SDS011;9034;50.284;19.310;2023-03-14T03:46:47;24.08;;;14.30;;
17818;SDS011;9034;50.284;19.310;2023-03-14T03:47:49;22.92;;;15.25;;
17818;SDS011;9034;50.284;19.310;2023-03-14T03:48:53;22.67;;;12.85;;
17818;SDS011;9034;50.284;19.310;2023-03-14T03:49:56;22.40;;;13.23;;
17818;SDS011;9034;50.284;19.310;2023-03-14T03:50:58;17.95;;;11.75;;
17818;SDS011;9034;50.284;19.310;2023-03-14T03:52:01;17.55;;;10.35;;
17818;SDS011;9034;50.284;19.310;2023-03-14T03:53:03;19.15;;;10.60;;
17818;SDS011;9034;50.284;19.310;2023-03-14T03:54:06;17.30;;;10.80;;
17818;SDS011;9034;50.284;19.310;2023-03-14T03:55:08;18.38;;;12.05;;
17818;SDS011;9034;50.284;19.310;2023-03-14T03:56:11;18.13;;;10.88;;
17818;SDS011;9034;50.284;19.310;2023-03-14T03:57:15;15.32;;;9.25;;
17818;SDS011;9034;50.284;19.310;2023-03-14T03:58:17;16.23;;;10.38;;
17818;SDS011;9034;50.284;19.310;2023-03-14T03:59:19;16.90;;;9.80;;
17818;SDS011;9034;50.284;19.310;2023-03-14T04:00:24;15.50;;;9.98;;
17818;SDS011;9034;50.284;19.310;2023-03-14T04:01:26;141.85;;;87.60;;
17818;SDS011;9034;50.284;19.310;2023-03-14T04:02:32;13.52;;;8.50;;
17818;SDS011;9034;50.284;19.310;2023-03-14T04:03:34;16.48;;;9.13;;
17818;SDS011;9034;50.284;19.310;2023-03-14T04:04:37;11.00;;;7.82;;
17818;SDS011;9034;50.284;19.310;2023-03-14T04:05:40;21.40;;;14.65;;
17818;SDS011;9034;50.284;19.310;2023-03-14T04:06:44;23.00;;;13.10;;
17818;SDS011;9034;50.284;19.310;2023-03-14T04:07:46;32.85;;;20.85;;
17818;SDS011;9034;50.284;19.310;2023-03-14T04:08:54;35.25;;;19.63;;
17818;SDS011;9034;50.284;19.310;2023-03-14T04:10:06;24.35;;;15.05;;
17818;SDS011;9034;50.284;19.310;2023-03-14T04:11:13;38.97;;;20.98;;
17818;SDS011;9034;50.284;19.310;2023-03-14T04:12:36;26.42;;;14.77;;
17818;SDS011;9034;50.284;19.310;2023-03-14T04:13:43;30.13;;;17.80;;
17818;SDS011;9034;50.284;19.310;2023-03-14T04:14:45;29.42;;;17.15;;
17818;SDS011;9034;50.284;19.310;2023-03-14T04:15:55;12.95;;;7.78;;
17818;SDS011;9034;50.284;19.310;2023-03-14T04:17:00;17.50;;;10.45;;
17818;SDS011;9034;50.284;19.310;2023-03-14T04:18:04;20.70;;;13.05;;
17818;SDS011;9034;50.284;19.310;2023-03-14T04:19:06;18.00;;;10.35;;
17818;SDS011;9034;50.284;19.310;2023-03-14T04:20:10;17.75;;;11.70;;
17818;SDS011;9034;50.284;19.310;2023-03-14T04:21:14;20.98;;;11.20;;
17818;SDS011;9034;50.284;19.310;2023-03-14T04:22:23;18.40;;;9.82;;
17818;SDS011;9034;50.284;19.310;2023-03-14T04:23:26;25.90;;;13.90;;
17818;SDS011;9034;50.284;19.310;2023-03-14T04:24:29;26.65;;;16.40;;
17818;SDS011;9034;50.284;19.310;2023-03-14T04:25:32;26.25;;;14.60;;
17818;SDS011;9034;50.284;19.310;2023-03-14T04:26:38;31.88;;;18.48;;
17818;SDS011;9034;50.284;19.310;2023-03-14T04:27:41;30.45;;;14.95;;
17818;SDS011;9034;50.284;19.310;2023-03-14T04:28:52;25.17;;;12.95;;
17818;SDS011;9034;50.284;19.310;2023-03-14T04:29:57;30.10;;;13.80;;
17818;SDS011;9034;50.284;19.310;2023-03-14T04:31:19;28.13;;;13.00;;
17818;SDS011;9034;50.284;19.310;2023-03-14T04:32:24;28.70;;;15.38;;
17818;SDS011;9034;50.284;19.310;2023-03-14T04:33:27;29.20;;;15.95;;
17818;SDS011;9034;50.284;19.310;2023-03-14T04:34:31;34.75;;;16.45;;
17818;SDS011;9034;50.284;19.310;2023-03-14T04:35:33;27.63;;;15.90;;
17818;SDS011;9034;50.284;19.310;2023-03-14T04:36:42;29.05;;;13.57;;
17818;SDS011;9034;50.284;19.310;2023-03-14T04:37:49;25.35;;;10.82;;
17818;SDS011;9034;50.284;19.310;2023-03-14T04:38:54;22.30;;;13.30;;
17818;SDS011;9034;50.284;19.310;2023-03-14T04:39:58;22.83;;;12.15;;
17818;SDS011;9034;50.284;19.310;2023-03-14T04:41:05;24.55;;;14.05;;
17818;SDS011;9034;50.284;19.310;2023-03-14T04:42:09;20.25;;;13.00;;
17818;SDS011;9034;50.284;19.310;2023-03-14T04:43:12;20.58;;;12.98;;
17818;SDS011;9034;50.284;19.310;2023-03-14T04:44:32;27.17;;;12.27;;
17818;SDS011;9034;50.284;19.310;2023-03-14T04:45:35;19.35;;;11.27;;
17818;SDS011;9034;50.284;19.310;2023-03-14T04:46:41;22.45;;;14.20;;
17818;SDS011;9034;50.284;19.310;2023-03-14T04:47:46;24.65;;;15.02;;
17818;SDS011;9034;50.284;19.310;2023-03-14T04:48:51;24.42;;;14.35;;
17818;SDS011;9034;50.284;19.310;2023-03-14T04:49:54;23.90;;;14.82;;
17818;SDS011;9034;50.284;19.310;2023-03-14T04:50:58;26.70;;;15.25;;
17818;SDS011;9034;50.284;19.310;2023-03-14T04:52:05;28.25;;;14.38;;
17818;SDS011;9034;50.284;19.310;2023-03-14T04:53:09;21.80;;;12.75;;
17818;SDS011;9034;50.284;19.310;2023-03-14T04:54:15;23.48;;;11.95;;
17818;SDS011;9034;50.284;19.310;2023-03-14T04:55:17;22.60;;;11.77;;
17818;SDS011;9034;50.284;19.310;2023-03-14T04:56:20;24.65;;;14.70;;
17818;SDS011;9034;50.284;19.310;2023-03-14T04:57:22;24.02;;;15.35;;
17818;SDS011;9034;50.284;19.310;2023-03-14T04:58:26;19.30;;;11.48;;
17818;SDS011;9034;50.284;19.310;2023-03-14T04:59:30;16.05;;;9.93;;
17818;SDS011;9034;50.284;19.310;2023-03-14T05:00:42;15.57;;;8.57;;
17818;SDS011;9034;50.284;19.310;2023-03-14T05:02:06;13.02;;;6.97;;
17818;SDS011;9034;50.284;19.310;2023-03-14T05:03:35;9.73;;;6.20;;
17818;SDS011;9034;50.284;19.310;2023-03-14T05:04:51;15.80;;;9.50;;
17818;SDS011;9034;50.284;19.310;2023-03-14T05:06:12;16.05;;;9.52;;
17818;SDS011;9034;50.284;19.310;2023-03-14T05:07:33;10.43;;;6.05;;
17818;SDS011;9034;50.284;19.310;2023-03-14T05:08:44;12.52;;;8.07;;
17818;SDS011;9034;50.284;19.310;2023-03-14T05:10:06;14.55;;;8.13;;
17818;SDS011;9034;50.284;19.310;2023-03-14T05:11:42;12.05;;;7.22;;
17818;SDS011;9034;50.284;19.310;2023-03-14T05:13:03;12.70;;;7.68;;
17818;SDS011;9034;50.284;19.310;2023-03-14T05:14:28;11.63;;;7.03;;
17818;SDS011;9034;50.284;19.310;2023-03-14T05:15:31;9.85;;;6.13;;
17818;SDS011;9034;50.284;19.310;2023-03-14T05:16:50;10.55;;;5.45;;
17818;SDS011;9034;50.284;19.310;2023-03-14T05:18:30;9.88;;;5.70;;
17818;SDS011;9034;50.284;19.310;2023-03-14T05:19:44;10.45;;;5.57;;
17818;SDS011;9034;50.284;19.310;2023-03-14T05:21:05;8.23;;;6.00;;
17818;SDS011;9034;50.284;19.310;2023-03-14T05:22:27;8.13;;;5.47;;
17818;SDS011;9034;50.284;19.310;2023-03-14T05:23:31;10.70;;;6.82;;
17818;SDS011;9034;50.284;19.310;2023-03-14T05:24:49;8.43;;;6.40;;
17818;SDS011;9034;50.284;19.310;2023-03-14T05:26:08;8.45;;;6.20;;
17818;SDS011;9034;50.284;19.310;2023-03-14T05:27:31;7.85;;;5.50;;
17818;SDS011;9034;50.284;19.310;2023-03-14T05:28:42;10.35;;;6.53;;
17818;SDS011;9034;50.284;19.310;2023-03-14T05:29:53;10.38;;;6.70;;
17818;SDS011;9034;50.284;19.310;2023-03-14T05:31:09;10.98;;;6.95;;
17818;SDS011;9034;50.284;19.310;2023-03-14T05:32:32;9.93;;;6.90;;
17818;SDS011;9034;50.284;19.310;2023-03-14T05:33:51;9.23;;;7.25;;
17818;SDS011;9034;50.284;19.310;2023-03-14T05:35:12;12.98;;;7.45;;
17818;SDS011;9034;50.284;19.310;2023-03-14T05:36:23;10.85;;;6.95;;
17818;SDS011;9034;50.284;19.310;2023-03-14T05:37:46;14.23;;;7.47;;
17818;SDS011;9034;50.284;19.310;2023-03-14T05:39:06;10.88;;;7.30;;
17818;SDS011;9034;50.284;19.310;2023-03-14T05:40:15;10.90;;;7.30;;
17818;SDS011;9034;50.284;19.310;2023-03-14T05:41:40;10.73;;;7.45;;
17818;SDS011;9034;50.284;19.310;2023-03-14T05:42:46;12.77;;;7.90;;
17818;SDS011;9034;50.284;19.310;2023-03-14T05:44:10;15.05;;;8.65;;
17818;SDS011;9034;50.284;19.310;2023-03-14T05:45:26;14.70;;;8.63;;
17818;SDS011;9034;50.284;19.310;2023-03-14T05:46:42;15.05;;;8.55;;
17818;SDS011;9034;50.284;19.310;2023-03-14T05:48:03;20.83;;;10.85;;
17818;SDS011;9034;50.284;19.310;2023-03-14T05:49:27;18.45;;;9.73;;
17818;SDS011;9034;50.284;19.310;2023-03-14T05:50:58;12.40;;;8.35;;
17818;SDS011;9034;50.284;19.310;2023-03-14T05:52:16;15.65;;;8.40;;
17818;SDS011;9034;50.284;19.310;2023-03-14T05:53:22;13.90;;;8.40;;
17818;SDS011;9034;50.284;19.310;2023-03-14T05:54:42;16.95;;;9.68;;
17818;SDS011;9034;50.284;19.310;2023-03-14T05:56:02;21.65;;;12.43;;
17818;SDS011;9034;50.284;19.310;2023-03-14T05:57:23;17.95;;;10.77;;
17818;SDS011;9034;50.284;19.310;2023-03-14T05:58:44;13.90;;;9.23;;
17818;SDS011;9034;50.284;19.310;2023-03-14T06:00:17;16.25;;;9.57;;
17818;SDS011;9034;50.284;19.310;2023-03-14T06:01:42;13.18;;;8.05;;
17818;SDS011;9034;50.284;19.310;2023-03-14T06:02:51;12.38;;;8.30;;
17818;SDS011;9034;50.284;19.310;2023-03-14T06:03:58;20.48;;;9.73;;
17818;SDS011;9034;50.284;19.310;2023-03-14T06:05:04;13.52;;;7.72;;
17818;SDS011;9034;50.284;19.310;2023-03-14T06:06:06;16.38;;;8.35;;
17818;SDS011;9034;50.284;19.310;2023-03-14T06:07:10;14.25;;;8.40;;
17818;SDS011;9034;50.284;19.310;2023-03-14T06:08:12;16.40;;;8.82;;
17818;SDS011;9034;50.284;19.310;2023-03-14T06:09:18;11.38;;;7.70;;
17818;SDS011;9034;50.284;19.310;2023-03-14T06:10:21;16.77;;;8.10;;
17818;SDS011;9034;50.284;19.310;2023-03-14T06:11:26;18.75;;;8.18;;
17818;SDS011;9034;50.284;19.310;2023-03-14T06:12:27;16.88;;;8.73;;
17818;SDS011;9034;50.284;19.310;2023-03-14T06:13:49;21.23;;;10.15;;
17818;SDS011;9034;50.284;19.310;2023-03-14T06:14:52;22.35;;;10.50;;
17818;SDS011;9034;50.284;19.310;2023-03-14T06:15:55;23.90;;;13.32;;
17818;SDS011;9034;50.284;19.310;2023-03-14T06:16:58;22.58;;;12.82;;
17818;SDS011;9034;50.284;19.310;2023-03-14T06:18:04;22.58;;;12.80;;
17818;SDS011;9034;50.284;19.310;2023-03-14T06:19:08;24.05;;;12.38;;
17818;SDS011;9034;50.284;19.310;2023-03-14T06:20:31;23.17;;;12.45;;
17818;SDS011;9034;50.284;19.310;2023-03-14T06:21:34;20.23;;;12.73;;
17818;SDS011;9034;50.284;19.310;2023-03-14T06:22:36;21.17;;;12.70;;
17818;SDS011;9034;50.284;19.310;2023-03-14T06:23:39;28.58;;;14.18;;
17818;SDS011;9034;50.284;19.310;2023-03-14T06:24:41;33.53;;;17.02;;
17818;SDS011;9034;50.284;19.310;2023-03-14T06:25:44;31.77;;;15.50;;
17818;SDS011;9034;50.284;19.310;2023-03-14T06:26:47;26.83;;;13.13;;
17818;SDS011;9034;50.284;19.310;2023-03-14T06:27:49;24.85;;;13.95;;
17818;SDS011;9034;50.284;19.310;2023-03-14T06:28:52;32.80;;;16.42;;
17818;SDS011;9034;50.284;19.310;2023-03-14T06:29:56;29.95;;;15.90;;
17818;SDS011;9034;50.284;19.310;2023-03-14T06:30:59;32.05;;;17.58;;
17818;SDS011;9034;50.284;19.310;2023-03-14T06:32:07;29.98;;;16.13;;